Accueil
METAR-TAF:

METAR-TAF

Aéroports :

Rarotonga, Îles Cook

Aéroport international de Rarotonga

latitude: 21-12S, longitude: 159-49W, altitude: 7 m

Observation

Le bulletin a été fait il y a 47 minutes, à 06:00 UTC
Vent 2 kt de sud
Température 23°C
Humidité 83%
Pression 1017 hPa
Visibilité 10 km ou plus
Quelques nuages à une hauteur de 2500 ft

METAR: NCRG 240600Z 17002KT 9999 FEW025 23/20 Q1017

Heure: 20:47 (06:47 UTC)

Prévision

Le bulletin a été fait il y a 1 heure et 35 minutes, à 05:12 UTC
Prévision valable du 24 à 06 UTC au 25 à 06 UTC
Vent 7 kt de sud-est
Visibilité 10 km ou plus
Quelques nuages à une hauteur de 2500 ft
Nuages épars à une hauteur de 4000 ft
Probabilité 30% :
Temporairement
du 24 à 06 UTC au 24 à 12 UTC
Visibilité: 5000 m
Nuages fragmentés à une hauteur de 1500 ft
averses de pluie

TAF: NCRG 240512Z 2406/2506 13007KT 9999 FEW025 SCT040 PROB30 TEMPO 2406/2412 5000 SHRA BKN015

Observations et prévisions météorologiques de plus de 4000 aéroports (messages METAR et TAF).

Les stations disponibles sont représentées par des disques jaunes et rouges sur la carte.

Passer la souris dessus pour voir le nom de la station.

Cliquer dessus pour voir les observations et prévisions météorologiques.

Pour changer de carte: cliquez sur les boutons verts avec une croix noire pour zoomer, sur le bouton vert avec un tiret pour effectuer un zoom arrière, ou sur les flèches vertes pour les cartes adjacentes.


METAR-TAF: